sensor_id;sensor_type;location;lat;lon;timestamp;pressure;altitude;pressure_sealevel;temperature;humidity
44988;BME280;35735;52.226;21.254;2022-09-09T00:05:14;100098.56;;;11.79;100.00
44988;BME280;35735;52.226;21.254;2022-09-09T00:10:33;100082.44;;;11.75;100.00
44988;BME280;35735;52.226;21.254;2022-09-09T00:15:57;100082.53;;;11.62;100.00
44988;BME280;35735;52.226;21.254;2022-09-09T00:21:11;100079.09;;;11.48;100.00
44988;BME280;35735;52.226;21.254;2022-09-09T00:26:24;100084.50;;;11.46;100.00
44988;BME280;35735;52.226;21.254;2022-09-09T00:31:31;100075.53;;;11.41;100.00
44988;BME280;35735;52.226;21.254;2022-09-09T00:36:33;100070.22;;;11.30;100.00
44988;BME280;35735;52.226;21.254;2022-09-09T00:52:44;100064.94;;;11.18;100.00
44988;BME280;35735;52.226;21.254;2022-09-09T00:57:52;100054.97;;;11.23;100.00
44988;BME280;35735;52.226;21.254;2022-09-09T01:03:06;100051.38;;;11.23;100.00
44988;BME280;35735;52.226;21.254;2022-09-09T01:08:39;100046.87;;;11.23;100.00
44988;BME280;35735;52.226;21.254;2022-09-09T01:13:47;100055.88;;;11.19;100.00
44988;BME280;35735;52.226;21.254;2022-09-09T01:19:07;100056.78;;;11.23;100.00
44988;BME280;35735;52.226;21.254;2022-09-09T01:24:22;100050.47;;;11.22;100.00
44988;BME280;35735;52.226;21.254;2022-09-09T01:29:28;100047.72;;;11.28;100.00
44988;BME280;35735;52.226;21.254;2022-09-09T01:34:37;100039.59;;;11.31;100.00
44988;BME280;35735;52.226;21.254;2022-09-09T01:39:42;100041.41;;;11.29;100.00
44988;BME280;35735;52.226;21.254;2022-09-09T01:44:44;100041.47;;;11.23;100.00
44988;BME280;35735;52.226;21.254;2022-09-09T01:49:44;100030.66;;;11.23;100.00
44988;BME280;35735;52.226;21.254;2022-09-09T01:54:45;100037.91;;;11.20;100.00
44988;BME280;35735;52.226;21.254;2022-09-09T02:00:12;100041.47;;;11.23;100.00
44988;BME280;35735;52.226;21.254;2022-09-09T02:05:28;100025.25;;;11.23;100.00
44988;BME280;35735;52.226;21.254;2022-09-09T02:16:04;100035.00;;;11.43;100.00
44988;BME280;35735;52.226;21.254;2022-09-09T02:21:10;100031.38;;;11.41;100.00
44988;BME280;35735;52.226;21.254;2022-09-09T02:26:12;100028.69;;;11.41;100.00
44988;BME280;35735;52.226;21.254;2022-09-09T02:31:17;100031.38;;;11.41;100.00
44988;BME280;35735;52.226;21.254;2022-09-09T02:36:20;100028.75;;;11.35;100.00
44988;BME280;35735;52.226;21.254;2022-09-09T02:41:27;100030.53;;;11.36;100.00
44988;BME280;35735;52.226;21.254;2022-09-09T02:52:18;100027.66;;;11.53;100.00
44988;BME280;35735;52.226;21.254;2022-09-09T02:57:23;100030.28;;;11.60;100.00
44988;BME280;35735;52.226;21.254;2022-09-09T03:02:25;100030.34;;;11.54;100.00
44988;BME280;35735;52.226;21.254;2022-09-09T03:07:26;100034.84;;;11.57;100.00
44988;BME280;35735;52.226;21.254;2022-09-09T03:12:26;100033.97;;;11.53;100.00
44988;BME280;35735;52.226;21.254;2022-09-09T03:17:27;100038.41;;;11.59;100.00
44988;BME280;35735;52.226;21.254;2022-09-09T03:22:28;100032.09;;;11.61;100.00
44988;BME280;35735;52.226;21.254;2022-09-09T03:27:28;100024.88;;;11.63;100.00
44988;BME280;35735;52.226;21.254;2022-09-09T03:32:29;100025.78;;;11.61;100.00
44988;BME280;35735;52.226;21.254;2022-09-09T03:37:30;100018.59;;;11.60;100.00
44988;BME280;35735;52.226;21.254;2022-09-09T03:42:30;100026.66;;;11.64;100.00
44988;BME280;35735;52.226;21.254;2022-09-09T03:47:31;100023.91;;;11.66;100.00
44988;BME280;35735;52.226;21.254;2022-09-09T03:52:34;100020.34;;;11.64;100.00
44988;BME280;35735;52.226;21.254;2022-09-09T03:57:36;100015.91;;;11.60;100.00
44988;BME280;35735;52.226;21.254;2022-09-09T04:02:37;100022.19;;;11.59;100.00
44988;BME280;35735;52.226;21.254;2022-09-09T04:07:37;100009.56;;;11.59;100.00
44988;BME280;35735;52.226;21.254;2022-09-09T04:12:38;100015.81;;;11.66;100.00
44988;BME280;35735;52.226;21.254;2022-09-09T04:17:38;100016.72;;;11.68;100.00
44988;BME280;35735;52.226;21.254;2022-09-09T04:22:39;100021.16;;;11.71;100.00
44988;BME280;35735;52.226;21.254;2022-09-09T04:27:39;100028.41;;;11.68;100.00
44988;BME280;35735;52.226;21.254;2022-09-09T04:32:40;100025.62;;;11.78;100.00
44988;BME280;35735;52.226;21.254;2022-09-09T04:37:41;100030.09;;;11.79;100.00
44988;BME280;35735;52.226;21.254;2022-09-09T04:42:41;100029.25;;;11.75;100.00
44988;BME280;35735;52.226;21.254;2022-09-09T04:47:42;100026.56;;;11.74;100.00
44988;BME280;35735;52.226;21.254;2022-09-09T04:52:42;100024.81;;;11.70;100.00
44988;BME280;35735;52.226;21.254;2022-09-09T04:57:43;100023.00;;;11.68;100.00
44988;BME280;35735;52.226;21.254;2022-09-09T05:02:43;100023.84;;;11.75;100.00
44988;BME280;35735;52.226;21.254;2022-09-09T05:07:44;100030.22;;;11.70;100.00
44988;BME280;35735;52.226;21.254;2022-09-09T05:12:52;100030.25;;;11.66;100.00
44988;BME280;35735;52.226;21.254;2022-09-09T05:17:59;100034.59;;;11.80;100.00
44988;BME280;35735;52.226;21.254;2022-09-09T05:23:00;100035.47;;;11.82;100.00
44988;BME280;35735;52.226;21.254;2022-09-09T05:28:01;100043.59;;;11.82;100.00
44988;BME280;35735;52.226;21.254;2022-09-09T05:33:02;100038.09;;;11.90;100.00
44988;BME280;35735;52.226;21.254;2022-09-09T05:38:02;100038.03;;;11.97;100.00
44988;BME280;35735;52.226;21.254;2022-09-09T05:43:03;100042.41;;;12.06;100.00
44988;BME280;35735;52.226;21.254;2022-09-09T05:48:03;100046.06;;;12.05;100.00
44988;BME280;35735;52.226;21.254;2022-09-09T05:53:04;100050.66;;;11.97;100.00
44988;BME280;35735;52.226;21.254;2022-09-09T05:58:05;100047.94;;;11.98;100.00
44988;BME280;35735;52.226;21.254;2022-09-09T06:03:05;100056.00;;;12.03;100.00
44988;BME280;35735;52.226;21.254;2022-09-09T06:08:06;100051.47;;;12.07;100.00
44988;BME280;35735;52.226;21.254;2022-09-09T06:13:06;100055.03;;;12.09;100.00
44988;BME280;35735;52.226;21.254;2022-09-09T06:18:07;100060.41;;;12.12;100.00
44988;BME280;35735;52.226;21.254;2022-09-09T06:23:07;100064.94;;;12.11;100.00
44988;BME280;35735;52.226;21.254;2022-09-09T06:28:08;100064.84;;;12.16;100.00
44988;BME280;35735;52.226;21.254;2022-09-09T06:33:08;100077.41;;;12.25;100.00
44988;BME280;35735;52.226;21.254;2022-09-09T06:38:09;100075.50;;;12.31;100.00
44988;BME280;35735;52.226;21.254;2022-09-09T06:43:09;100078.16;;;12.34;100.00
44988;BME280;35735;52.226;21.254;2022-09-09T06:48:10;100073.69;;;12.32;100.00
44988;BME280;35735;52.226;21.254;2022-09-09T06:53:10;100080.78;;;12.42;100.00
44988;BME280;35735;52.226;21.254;2022-09-09T06:58:11;100090.72;;;12.40;100.00
44988;BME280;35735;52.226;21.254;2022-09-09T07:03:11;100082.59;;;12.40;100.00
44988;BME280;35735;52.226;21.254;2022-09-09T07:08:12;100085.34;;;12.38;100.00
44988;BME280;35735;52.226;21.254;2022-09-09T07:13:13;100093.31;;;12.48;100.00
44988;BME280;35735;52.226;21.254;2022-09-09T07:18:13;100091.56;;;12.45;100.00
44988;BME280;35735;52.226;21.254;2022-09-09T07:23:14;100092.44;;;12.46;100.00
44988;BME280;35735;52.226;21.254;2022-09-09T07:28:15;100093.25;;;12.54;100.00
44988;BME280;35735;52.226;21.254;2022-09-09T07:33:15;100101.34;;;12.57;100.00
44988;BME280;35735;52.226;21.254;2022-09-09T07:38:16;100109.41;;;12.62;100.00
44988;BME280;35735;52.226;21.254;2022-09-09T07:43:16;100107.66;;;12.56;100.00
44988;BME280;35735;52.226;21.254;2022-09-09T07:48:17;100119.44;;;12.52;100.00
44988;BME280;35735;52.226;21.254;2022-09-09T07:53:18;100125.72;;;12.55;100.00
44988;BME280;35735;52.226;21.254;2022-09-09T07:58:18;100116.53;;;12.67;100.00
44988;BME280;35735;52.226;21.254;2022-09-09T08:03:19;100117.41;;;12.69;100.00
44988;BME280;35735;52.226;21.254;2022-09-09T08:08:19;100136.34;;;12.69;100.00
44988;BME280;35735;52.226;21.254;2022-09-09T08:13:20;100140.00;;;12.68;100.00
44988;BME280;35735;52.226;21.254;2022-09-09T08:18:20;100144.41;;;12.75;100.00
44988;BME280;35735;52.226;21.254;2022-09-09T08:23:21;100146.13;;;12.81;100.00
44988;BME280;35735;52.226;21.254;2022-09-09T08:28:21;100146.09;;;12.84;100.00
44988;BME280;35735;52.226;21.254;2022-09-09T08:33:22;100144.19;;;12.91;100.00
44988;BME280;35735;52.226;21.254;2022-09-09T08:38:22;100146.00;;;12.92;100.00
44988;BME280;35735;52.226;21.254;2022-09-09T08:43:23;100148.72;;;12.90;100.00
44988;BME280;35735;52.226;21.254;2022-09-09T08:48:47;100164.91;;;12.95;100.00
44988;BME280;35735;52.226;21.254;2022-09-09T08:53:57;100165.59;;;13.09;100.00
44988;BME280;35735;52.226;21.254;2022-09-09T08:59:00;100166.44;;;13.13;100.00
44988;BME280;35735;52.226;21.254;2022-09-09T09:04:14;100172.81;;;13.10;100.00
44988;BME280;35735;52.226;21.254;2022-09-09T09:09:46;100179.91;;;13.21;100.00
44988;BME280;35735;52.226;21.254;2022-09-09T09:14:55;100172.75;;;13.16;100.00
44988;BME280;35735;52.226;21.254;2022-09-09T09:19:56;100179.13;;;13.11;100.00
44988;BME280;35735;52.226;21.254;2022-09-09T09:30:22;100185.47;;;13.10;100.00
44988;BME280;35735;52.226;21.254;2022-09-09T09:35:25;100187.38;;;13.05;100.00
44988;BME280;35735;52.226;21.254;2022-09-09T09:40:25;100189.09;;;13.10;100.00
44988;BME280;35735;52.226;21.254;2022-09-09T09:45:33;100192.63;;;13.15;100.00
44988;BME280;35735;52.226;21.254;2022-09-09T09:50:50;100196.19;;;13.18;100.00
44988;BME280;35735;52.226;21.254;2022-09-09T09:55:58;100198.88;;;13.21;100.00
44988;BME280;35735;52.226;21.254;2022-09-09T10:01:01;100200.66;;;13.23;100.00
44988;BME280;35735;52.226;21.254;2022-09-09T10:06:01;100199.66;;;13.32;100.00
44988;BME280;35735;52.226;21.254;2022-09-09T10:21:50;100205.63;;;13.54;100.00
44988;BME280;35735;52.226;21.254;2022-09-09T10:27:09;100200.97;;;13.62;100.00
44988;BME280;35735;52.226;21.254;2022-09-09T10:43:37;100225.12;;;13.79;100.00
44988;BME280;35735;52.226;21.254;2022-09-09T10:59:50;100235.16;;;13.74;100.00
44988;BME280;35735;52.226;21.254;2022-09-09T11:05:04;100249.56;;;13.76;100.00
44988;BME280;35735;52.226;21.254;2022-09-09T11:10:45;100258.44;;;13.87;100.00
44988;BME280;35735;52.226;21.254;2022-09-09T11:15:57;100268.34;;;13.92;100.00
44988;BME280;35735;52.226;21.254;2022-09-09T11:21:02;100275.59;;;13.88;100.00
44988;BME280;35735;52.226;21.254;2022-09-09T11:26:04;100271.16;;;13.85;100.00
44988;BME280;35735;52.226;21.254;2022-09-09T11:31:21;100273.03;;;13.80;100.00
44988;BME280;35735;52.226;21.254;2022-09-09T11:42:20;100273.91;;;13.82;100.00
44988;BME280;35735;52.226;21.254;2022-09-09T11:47:28;100285.56;;;13.87;100.00
44988;BME280;35735;52.226;21.254;2022-09-09T11:52:39;100280.94;;;13.94;100.00
44988;BME280;35735;52.226;21.254;2022-09-09T11:57:42;100295.41;;;13.95;100.00
44988;BME280;35735;52.226;21.254;2022-09-09T12:02:48;100284.47;;;13.99;100.00
44988;BME280;35735;52.226;21.254;2022-09-09T12:07:56;100282.66;;;14.00;100.00
44988;BME280;35735;52.226;21.254;2022-09-09T12:13:17;100273.69;;;13.95;100.00
44988;BME280;35735;52.226;21.254;2022-09-09T12:23:43;100290.03;;;13.92;100.00
44988;BME280;35735;52.226;21.254;2022-09-09T12:34:34;100297.19;;;13.96;100.00
44988;BME280;35735;52.226;21.254;2022-09-09T12:39:52;100297.00;;;14.06;100.00
44988;BME280;35735;52.226;21.254;2022-09-09T12:45:03;100294.50;;;13.96;100.00
44988;BME280;35735;52.226;21.254;2022-09-09T12:50:21;100294.50;;;13.96;100.00
44988;BME280;35735;52.226;21.254;2022-09-09T12:55:27;100298.09;;;13.95;100.00
44988;BME280;35735;52.226;21.254;2022-09-09T13:00:28;100289.09;;;13.93;100.00
44988;BME280;35735;52.226;21.254;2022-09-09T13:05:37;100278.34;;;13.86;100.00
44988;BME280;35735;52.226;21.254;2022-09-09T13:10:52;100276.53;;;13.88;100.00
44988;BME280;35735;52.226;21.254;2022-09-09T13:15:57;100280.13;;;13.89;100.00
44988;BME280;35735;52.226;21.254;2022-09-09T13:20:59;100285.47;;;13.94;100.00
44988;BME280;35735;52.226;21.254;2022-09-09T13:26:05;100292.50;;;14.07;100.00
44988;BME280;35735;52.226;21.254;2022-09-09T13:31:21;100290.56;;;14.15;100.00
44988;BME280;35735;52.226;21.254;2022-09-09T13:36:33;100272.31;;;14.23;100.00
44988;BME280;35735;52.226;21.254;2022-09-09T13:41:42;100277.63;;;14.30;100.00
44988;BME280;35735;52.226;21.254;2022-09-09T13:46:44;100274.09;;;14.24;100.00
44988;BME280;35735;52.226;21.254;2022-09-09T13:51:47;100270.53;;;14.22;100.00
44988;BME280;35735;52.226;21.254;2022-09-09T13:56:48;100271.34;;;14.27;100.00
44988;BME280;35735;52.226;21.254;2022-09-09T14:01:49;100265.69;;;14.40;100.00
44988;BME280;35735;52.226;21.254;2022-09-09T14:06:50;100268.09;;;14.57;100.00
44988;BME280;35735;52.226;21.254;2022-09-09T14:11:50;100272.66;;;14.55;100.00
44988;BME280;35735;52.226;21.254;2022-09-09T14:16:51;100278.84;;;14.64;100.00
44988;BME280;35735;52.226;21.254;2022-09-09T14:21:52;100280.44;;;14.75;100.00
44988;BME280;35735;52.226;21.254;2022-09-09T14:26:52;100296.84;;;14.72;100.00
44988;BME280;35735;52.226;21.254;2022-09-09T14:31:53;100295.09;;;14.68;100.00
44988;BME280;35735;52.226;21.254;2022-09-09T14:36:53;100289.91;;;14.52;100.00
44988;BME280;35735;52.226;21.254;2022-09-09T14:41:54;100299.25;;;14.36;100.00
44988;BME280;35735;52.226;21.254;2022-09-09T14:46:55;100292.88;;;14.38;100.00
44988;BME280;35735;52.226;21.254;2022-09-09T14:51:55;100297.34;;;14.41;100.00
44988;BME280;35735;52.226;21.254;2022-09-09T14:56:56;100292.69;;;14.48;100.00
44988;BME280;35735;52.226;21.254;2022-09-09T15:01:57;100284.53;;;14.49;100.00
44988;BME280;35735;52.226;21.254;2022-09-09T15:06:57;100291.63;;;14.56;100.00
44988;BME280;35735;52.226;21.254;2022-09-09T15:11:58;100291.75;;;14.50;100.00
44988;BME280;35735;52.226;21.254;2022-09-09T15:16:58;100292.66;;;14.51;100.00
44988;BME280;35735;52.226;21.254;2022-09-09T15:21:59;100304.59;;;14.42;100.00
44988;BME280;35735;52.226;21.254;2022-09-09T15:27:00;100298.37;;;14.34;100.00
44988;BME280;35735;52.226;21.254;2022-09-09T15:32:01;100296.66;;;14.28;100.00
44988;BME280;35735;52.226;21.254;2022-09-09T15:37:02;100302.22;;;14.22;100.00
44988;BME280;35735;52.226;21.254;2022-09-09T15:42:03;100295.84;;;14.23;100.00
44988;BME280;35735;52.226;21.254;2022-09-09T15:47:03;100307.59;;;14.25;100.00
44988;BME280;35735;52.226;21.254;2022-09-09T15:52:04;100298.69;;;14.17;100.00
44988;BME280;35735;52.226;21.254;2022-09-09T15:57:07;100314.87;;;14.20;100.00
44988;BME280;35735;52.226;21.254;2022-09-09T16:02:10;100317.41;;;14.34;100.00
44988;BME280;35735;52.226;21.254;2022-09-09T16:07:10;100307.44;;;14.33;100.00
44988;BME280;35735;52.226;21.254;2022-09-09T16:12:11;100315.63;;;14.30;100.00
44988;BME280;35735;52.226;21.254;2022-09-09T16:17:11;100315.59;;;14.33;100.00
44988;BME280;35735;52.226;21.254;2022-09-09T16:22:12;100313.97;;;14.22;100.00
44988;BME280;35735;52.226;21.254;2022-09-09T16:27:12;100300.53;;;14.13;100.00
44988;BME280;35735;52.226;21.254;2022-09-09T16:32:13;100306.06;;;14.07;100.00
44988;BME280;35735;52.226;21.254;2022-09-09T16:37:14;100303.38;;;14.05;100.00
44988;BME280;35735;52.226;21.254;2022-09-09T16:42:14;100310.63;;;14.05;100.00
44988;BME280;35735;52.226;21.254;2022-09-09T16:47:15;100298.88;;;14.04;100.00
44988;BME280;35735;52.226;21.254;2022-09-09T16:52:15;100301.66;;;14.00;100.00
44988;BME280;35735;52.226;21.254;2022-09-09T16:57:16;100302.66;;;13.93;100.00
44988;BME280;35735;52.226;21.254;2022-09-09T17:02:16;100296.22;;;14.00;100.00
44988;BME280;35735;52.226;21.254;2022-09-09T17:07:17;100298.19;;;13.92;100.00
44988;BME280;35735;52.226;21.254;2022-09-09T17:12:17;100299.25;;;13.80;100.00
44988;BME280;35735;52.226;21.254;2022-09-09T17:17:18;100307.56;;;13.69;100.00
44988;BME280;35735;52.226;21.254;2022-09-09T17:22:19;100314.81;;;13.67;100.00
44988;BME280;35735;52.226;21.254;2022-09-09T17:27:19;100332.94;;;13.65;100.00
44988;BME280;35735;52.226;21.254;2022-09-09T17:32:20;100324.81;;;13.65;100.00
44988;BME280;35735;52.226;21.254;2022-09-09T17:37:20;100326.62;;;13.63;100.00
44988;BME280;35735;52.226;21.254;2022-09-09T17:42:21;100324.00;;;13.57;100.00
44988;BME280;35735;52.226;21.254;2022-09-09T17:47:21;100328.53;;;13.56;100.00
44988;BME280;35735;52.226;21.254;2022-09-09T17:52:22;100339.31;;;13.59;100.00
44988;BME280;35735;52.226;21.254;2022-09-09T17:57:22;100349.37;;;13.52;100.00
44988;BME280;35735;52.226;21.254;2022-09-09T18:02:23;100342.31;;;13.39;100.00
44988;BME280;35735;52.226;21.254;2022-09-09T18:07:24;100346.84;;;13.37;100.00
44988;BME280;35735;52.226;21.254;2022-09-09T18:12:25;100340.56;;;13.37;100.00
44988;BME280;35735;52.226;21.254;2022-09-09T18:17:25;100345.97;;;13.37;100.00
44988;BME280;35735;52.226;21.254;2022-09-09T18:22:26;100361.25;;;13.41;100.00
44988;BME280;35735;52.226;21.254;2022-09-09T18:27:26;100348.59;;;13.43;100.00
44988;BME280;35735;52.226;21.254;2022-09-09T18:32:27;100371.09;;;13.49;100.00
44988;BME280;35735;52.226;21.254;2022-09-09T18:37:27;100366.59;;;13.48;100.00
44988;BME280;35735;52.226;21.254;2022-09-09T18:42:28;100367.53;;;13.44;100.00
44988;BME280;35735;52.226;21.254;2022-09-09T18:47:28;100378.38;;;13.44;100.00
44988;BME280;35735;52.226;21.254;2022-09-09T18:52:29;100370.16;;;13.52;100.00
44988;BME280;35735;52.226;21.254;2022-09-09T18:57:30;100360.19;;;13.54;100.00
44988;BME280;35735;52.226;21.254;2022-09-09T19:02:30;100365.63;;;13.54;100.00
44988;BME280;35735;52.226;21.254;2022-09-09T19:07:31;100374.69;;;13.51;100.00
44988;BME280;35735;52.226;21.254;2022-09-09T19:12:31;100375.63;;;13.49;100.00
44988;BME280;35735;52.226;21.254;2022-09-09T19:17:32;100373.81;;;13.49;100.00
44988;BME280;35735;52.226;21.254;2022-09-09T19:22:32;100359.47;;;13.40;100.00
44988;BME280;35735;52.226;21.254;2022-09-09T19:27:33;100371.28;;;13.34;100.00
44988;BME280;35735;52.226;21.254;2022-09-09T19:32:33;100375.69;;;13.43;100.00
44988;BME280;35735;52.226;21.254;2022-09-09T19:37:34;100372.03;;;13.47;100.00
44988;BME280;35735;52.226;21.254;2022-09-09T19:42:35;100369.28;;;13.51;100.00
44988;BME280;35735;52.226;21.254;2022-09-09T19:47:35;100363.88;;;13.48;100.00
44988;BME280;35735;52.226;21.254;2022-09-09T19:52:36;100365.69;;;13.48;100.00
44988;BME280;35735;52.226;21.254;2022-09-09T19:57:36;100370.16;;;13.52;100.00
44988;BME280;35735;52.226;21.254;2022-09-09T20:02:37;100370.13;;;13.55;100.00
44988;BME280;35735;52.226;21.254;2022-09-09T20:07:38;100372.03;;;13.48;100.00
44988;BME280;35735;52.226;21.254;2022-09-09T20:12:38;100368.50;;;13.42;100.00
44988;BME280;35735;52.226;21.254;2022-09-09T20:17:39;100383.97;;;13.32;100.00
44988;BME280;35735;52.226;21.254;2022-09-09T20:22:39;100374.97;;;13.27;100.00
44988;BME280;35735;52.226;21.254;2022-09-09T20:27:40;100360.47;;;13.28;100.00
44988;BME280;35735;52.226;21.254;2022-09-09T20:32:40;100361.44;;;13.24;100.00
44988;BME280;35735;52.226;21.254;2022-09-09T20:37:41;100365.97;;;13.25;100.00
44988;BME280;35735;52.226;21.254;2022-09-09T20:42:41;100367.75;;;13.23;100.00
44988;BME280;35735;52.226;21.254;2022-09-09T20:47:42;100356.00;;;13.25;100.00
44988;BME280;35735;52.226;21.254;2022-09-09T20:52:43;100355.19;;;13.17;100.00
44988;BME280;35735;52.226;21.254;2022-09-09T20:57:43;100366.91;;;13.19;100.00
44988;BME280;35735;52.226;21.254;2022-09-09T21:02:44;100380.41;;;13.25;100.00
44988;BME280;35735;52.226;21.254;2022-09-09T21:07:44;100376.72;;;13.31;100.00
44988;BME280;35735;52.226;21.254;2022-09-09T21:12:45;100379.37;;;13.37;100.00
44988;BME280;35735;52.226;21.254;2022-09-09T21:17:45;100388.34;;;13.44;100.00
44988;BME280;35735;52.226;21.254;2022-09-09T21:22:46;100389.19;;;13.49;100.00
44988;BME280;35735;52.226;21.254;2022-09-09T21:27:46;100377.41;;;13.51;100.00
44988;BME280;35735;52.226;21.254;2022-09-09T21:32:47;100393.63;;;13.55;100.00
44988;BME280;35735;52.226;21.254;2022-09-09T21:37:47;100391.88;;;13.50;100.00
44988;BME280;35735;52.226;21.254;2022-09-09T21:42:48;100400.00;;;13.50;100.00
44988;BME280;35735;52.226;21.254;2022-09-09T21:47:48;100396.44;;;13.48;100.00
44988;BME280;35735;52.226;21.254;2022-09-09T21:52:49;100383.75;;;13.50;100.00
44988;BME280;35735;52.226;21.254;2022-09-09T21:57:50;100382.87;;;13.48;100.00
44988;BME280;35735;52.226;21.254;2022-09-09T22:02:50;100386.56;;;13.41;100.00
44988;BME280;35735;52.226;21.254;2022-09-09T22:07:51;100390.25;;;13.31;100.00
44988;BME280;35735;52.226;21.254;2022-09-09T22:12:52;100391.22;;;13.27;100.00
44988;BME280;35735;52.226;21.254;2022-09-09T22:17:53;100391.41;;;13.11;100.00
44988;BME280;35735;52.226;21.254;2022-09-09T22:22:54;100389.75;;;12.98;100.00
44988;BME280;35735;52.226;21.254;2022-09-09T22:27:54;100377.19;;;12.86;100.00
44988;BME280;35735;52.226;21.254;2022-09-09T22:32:56;100382.53;;;12.94;100.00
44988;BME280;35735;52.226;21.254;2022-09-09T22:37:57;100379.81;;;12.95;100.00
44988;BME280;35735;52.226;21.254;2022-09-09T22:42:57;100382.56;;;12.91;100.00
44988;BME280;35735;52.226;21.254;2022-09-09T22:47:59;100391.53;;;12.99;100.00
44988;BME280;35735;52.226;21.254;2022-09-09T22:52:59;100399.59;;;13.04;100.00
44988;BME280;35735;52.226;21.254;2022-09-09T22:58:00;100388.72;;;13.08;100.00
44988;BME280;35735;52.226;21.254;2022-09-09T23:03:01;100386.06;;;13.02;100.00
44988;BME280;35735;52.226;21.254;2022-09-09T23:08:01;100371.69;;;12.97;100.00
44988;BME280;35735;52.226;21.254;2022-09-09T23:13:02;100369.84;;;12.97;100.00
44988;BME280;35735;52.226;21.254;2022-09-09T23:18:02;100360.88;;;12.94;100.00
44988;BME280;35735;52.226;21.254;2022-09-09T23:23:03;100355.50;;;12.88;100.00
44988;BME280;35735;52.226;21.254;2022-09-09T23:28:03;100355.63;;;12.78;100.00
44988;BME280;35735;52.226;21.254;2022-09-09T23:33:04;100357.41;;;12.79;100.00
44988;BME280;35735;52.226;21.254;2022-09-09T23:38:04;100353.84;;;12.73;100.00
44988;BME280;35735;52.226;21.254;2022-09-09T23:43:05;100350.41;;;12.58;100.00
44988;BME280;35735;52.226;21.254;2022-09-09T23:48:05;100353.16;;;12.52;100.00
44988;BME280;35735;52.226;21.254;2022-09-09T23:53:06;100348.59;;;12.56;100.00
44988;BME280;35735;52.226;21.254;2022-09-09T23:58:07;100354.94;;;12.55;100.00
